Terminal Aerodrome Forecast
Issued by NWS

Home | Current Version | Previous Version | Text Only | Print | Product List | Glossary On
Versions: 1 2 3 4 5 6 7 8 9 10 11 12 13
000
FTUS45 KREV 231727
TAFRNO
TAF
KRNO 231727Z 2318/2418 VRB03KT P6SM SCT080
     FM232100 28007KT P6SM VCTS FEW070 SCT090CB BKN150
     FM240100 30010G18KT P6SM SCT090 SCT150
     FM240500 VRB03KT P6SM FEW080=

USA.gov is the U.S. government's official web portal to all federal, state and local government web resources and services.